Time;durP1;ratioP1;P1;durP2;ratioP2;P2;SDS_P1;SDS_P2;PMS_P1;PMS_P2;Temp;Humidity;BMP_temperature;BMP_pressure;BME280_temperature;BME280_humidity;BME280_pressure;Samples;Min_cycle;Max_cycle;Signal;HPM_P1;HPM_P2
2021/03/08 00:01:19;;;;;;;17.08;5.62;;;;;;;23.61;36.07;99731.28;4470221;32;34592;-52
2021/03/08 00:03:46;;;;;;;14.50;5.28;;;;;;;23.60;36.11;99721.47;4470531;32;34749;-60
2021/03/08 00:06:14;;;;;;;14.70;5.22;;;;;;;23.58;36.00;99726.28;4484503;32;33990;-54
2021/03/08 00:08:41;;;;;;;17.30;4.87;;;;;;;23.57;36.00;99720.00;4484646;32;33732;-50
2021/03/08 00:11:08;;;;;;;12.98;4.53;;;;;;;23.56;36.10;99718.34;4484351;32;33483;-52
2021/03/08 00:13:35;;;;;;;22.35;5.80;;;;;;;23.58;36.13;99720.84;4484360;32;33651;-70
2021/03/08 00:16:02;;;;;;;21.23;5.35;;;;;;;23.56;36.31;99720.25;4484826;32;34936;-50
2021/03/08 00:18:31;;;;;;;18.60;5.50;;;;;;;23.55;36.33;99716.69;4484626;32;34588;-76
2021/03/08 00:20:58;;;;;;;19.40;4.70;;;;;;;23.55;36.36;99711.25;4484455;32;33392;-58
2021/03/08 00:23:25;;;;;;;21.92;5.18;;;;;;;23.53;36.42;99707.91;4484535;32;33172;-57
2021/03/08 00:25:52;;;;;;;23.85;5.32;;;;;;;23.52;36.37;99711.69;4484117;31;34023;-62
2021/03/08 00:28:19;;;;;;;17.95;5.15;;;;;;;23.52;36.39;99714.41;4484434;32;33623;-53
2021/03/08 00:30:46;;;;;;;14.20;5.20;;;;;;;23.51;36.44;99707.31;4484515;32;33175;-58
2021/03/08 00:33:13;;;;;;;20.20;4.97;;;;;;;23.50;36.34;99705.66;4484607;32;34576;-73
2021/03/08 00:35:40;;;;;;;16.20;6.20;;;;;;;23.50;36.51;99697.50;4484085;32;33876;-57
2021/03/08 00:38:07;;;;;;;17.90;4.87;;;;;;;23.48;36.47;99705.03;4484440;32;33513;-58
2021/03/08 00:40:35;;;;;;;20.58;5.10;;;;;;;23.47;36.45;99700.66;4484502;32;34108;-60
2021/03/08 00:43:02;;;;;;;16.85;4.97;;;;;;;23.46;36.43;99696.28;4484248;32;35152;-50
2021/03/08 00:45:29;;;;;;;16.80;5.30;;;;;;;23.46;36.45;99699.00;4484598;32;35131;-51
2021/03/08 00:47:56;;;;;;;17.27;5.28;;;;;;;23.44;36.45;99695.66;4484642;32;33851;-68
2021/03/08 00:50:25;;;;;;;17.67;5.80;;;;;;;23.43;36.48;99686.66;4484373;32;34208;-48
2021/03/08 00:52:53;;;;;;;15.73;4.97;;;;;;;23.42;36.84;99693.19;4484504;32;34545;-47
2021/03/08 00:55:20;;;;;;;21.20;6.10;;;;;;;23.45;36.74;99686.44;4470270;32;35027;-56
2021/03/08 00:57:49;;;;;;;18.92;4.87;;;;;;;23.42;36.69;99685.00;4474437;32;34456;-49
2021/03/08 01:00:20;;;;;;;18.42;5.20;;;;;;;23.42;36.66;99685.00;4476529;32;33635;-45
2021/03/08 01:02:48;;;;;;;14.18;6.05;;;;;;;23.39;36.68;99680.00;4484462;32;34863;-66
2021/03/08 01:05:17;;;;;;;14.32;5.18;;;;;;;23.40;36.70;99684.38;4484394;32;34870;-52
2021/03/08 01:07:44;;;;;;;17.27;5.57;;;;;;;23.39;36.61;99676.47;4484257;32;33906;-57
2021/03/08 01:10:15;;;;;;;19.90;4.72;;;;;;;23.39;36.68;99679.19;4484595;32;33138;-46
2021/03/08 01:12:42;;;;;;;17.42;5.10;;;;;;;23.37;36.71;99673.16;4484006;32;33786;-55
2021/03/08 01:15:10;;;;;;;16.10;4.75;;;;;;;23.39;36.74;99668.28;4484170;32;35110;-61
2021/03/08 01:17:37;;;;;;;19.58;4.95;;;;;;;23.38;36.70;99661.19;4484178;32;33855;-58
2021/03/08 01:20:09;;;;;;;16.10;5.55;;;;;;;23.36;36.59;99652.41;4484282;32;33465;-44
2021/03/08 01:22:36;;;;;;;15.85;5.47;;;;;;;23.34;35.22;99658.09;4484180;32;33785;-57
2021/03/08 01:25:10;;;;;;;17.65;5.93;;;;;;;23.36;34.98;99666.00;4484419;32;33661;-58
2021/03/08 01:27:37;;;;;;;15.07;5.35;;;;;;;23.35;35.11;99661.62;4470226;32;33832;-55
2021/03/08 01:30:16;;;;;;;19.73;5.90;;;;;;;23.34;35.62;99654.53;4484068;32;33324;-55
2021/03/08 01:32:43;;;;;;;20.62;5.68;;;;;;;23.33;35.58;99656.44;4483956;32;33928;-57
2021/03/08 01:35:10;;;;;;;21.08;5.70;;;;;;;23.32;35.57;99657.50;4484026;32;34684;-47
2021/03/08 01:37:37;;;;;;;21.35;6.07;;;;;;;23.31;35.62;99658.53;4484106;32;33567;-49
2021/03/08 01:40:06;;;;;;;24.08;5.68;;;;;;;23.29;35.66;99655.22;4484161;32;33442;-63
2021/03/08 01:42:34;;;;;;;18.00;5.65;;;;;;;23.28;35.74;99653.56;4469889;32;33757;-51
2021/03/08 01:45:01;;;;;;;15.77;5.95;;;;;;;23.28;35.79;99656.28;4469704;32;33860;-67
2021/03/08 01:47:28;;;;;;;25.80;5.93;;;;;;;23.27;35.79;99653.78;4483712;32;34719;-47
2021/03/08 01:49:55;;;;;;;14.00;4.95;;;;;;;23.26;35.86;99652.94;4483938;32;34413;-56
2021/03/08 01:52:22;;;;;;;13.95;4.70;;;;;;;23.25;35.91;99656.75;4484289;32;33928;-58
2021/03/08 01:54:49;;;;;;;17.73;5.35;;;;;;;23.25;35.98;99669.53;4456764;32;33946;-62
2021/03/08 01:57:17;;;;;;;16.87;5.62;;;;;;;23.24;35.93;99665.97;4483858;32;34479;-56
2021/03/08 01:59:44;;;;;;;15.88;5.53;;;;;;;23.23;36.01;99653.44;4469566;32;33910;-70
2021/03/08 02:02:11;;;;;;;13.95;5.10;;;;;;;23.24;36.07;99654.25;4469432;32;33535;-45
2021/03/08 02:04:38;;;;;;;14.00;4.82;;;;;;;23.23;36.08;99652.59;4483908;32;34004;-51
2021/03/08 02:07:05;;;;;;;14.43;5.30;;;;;;;23.21;36.09;99652.81;4483884;32;33939;-65
2021/03/08 02:09:32;;;;;;;18.15;5.55;;;;;;;23.21;36.10;99643.81;4483065;32;34077;-51
2021/03/08 02:12:17;;;;;;;11.93;5.03;;;;;;;23.21;36.14;99651.97;4480616;32;88780;-56
2021/03/08 02:15:05;;;;;;;18.40;5.25;;;;;;;23.21;36.18;99646.53;4469274;32;33842;-57
2021/03/08 02:17:38;;;;;;;12.63;4.78;;;;;;;23.19;36.38;99645.94;4471769;32;34680;-62
2021/03/08 02:20:46;;;;;;;14.25;5.03;;;;;;;23.20;36.50;99644.88;4457105;32;33335;-57
2021/03/08 02:23:13;;;;;;;15.50;5.28;;;;;;;23.21;36.55;99632.94;4483502;32;33561;-67
2021/03/08 02:26:08;;;;;;;11.45;5.00;;;;;;;23.17;36.60;99630.69;4483874;32;34120;-47
2021/03/08 02:28:43;;;;;;;15.18;4.75;;;;;;;23.19;36.54;99627.72;4483385;32;33860;-50
2021/03/08 02:31:11;;;;;;;14.38;4.62;;;;;;;23.13;36.63;99623.19;4470024;32;34457;-59
2021/03/08 02:33:39;;;;;;;15.77;4.70;;;;;;;23.14;36.46;99625.69;4469548;32;34637;-55
2021/03/08 02:36:08;;;;;;;12.15;4.62;;;;;;;23.15;36.56;99632.78;4469394;32;34023;-47
2021/03/08 02:38:43;;;;;;;12.07;4.43;;;;;;;23.23;36.60;99628.09;4483596;32;34767;-62
2021/03/08 02:41:20;;;;;;;17.20;5.07;;;;;;;23.37;36.61;99630.41;4456256;32;33550;-62
2021/03/08 02:43:51;;;;;;;14.82;4.53;;;;;;;23.54;36.45;99627.84;4469218;32;33634;-54
2021/03/08 02:46:26;;;;;;;8.52;4.30;;;;;;;23.68;36.31;99618.47;4468391;32;33631;-70
2021/03/08 02:48:54;;;;;;;10.95;4.18;;;;;;;23.85;36.11;99618.63;4483244;32;33717;-65
2021/03/08 02:51:22;;;;;;;12.57;4.47;;;;;;;24.00;35.89;99615.47;4469415;32;33001;-73
2021/03/08 02:53:50;;;;;;;12.85;4.68;;;;;;;24.16;35.70;99606.59;4455845;32;33553;-67
2021/03/08 02:56:22;;;;;;;13.40;4.47;;;;;;;24.30;35.50;99604.47;4469012;32;33512;-74
2021/03/08 02:58:50;;;;;;;10.93;4.43;;;;;;;24.42;35.34;99610.78;4458156;32;33728;-71
2021/03/08 03:01:20;;;;;;;12.25;4.30;;;;;;;24.52;35.17;99612.91;4471138;32;33535;-65
2021/03/08 03:03:52;;;;;;;10.65;4.55;;;;;;;24.62;35.02;99612.28;4485058;32;34860;-66
2021/03/08 03:06:20;;;;;;;10.63;4.37;;;;;;;24.69;34.89;99616.56;4470843;32;34778;-66
2021/03/08 03:08:47;;;;;;;9.90;4.18;;;;;;;24.76;34.80;99611.00;4457515;32;33960;-56
2021/03/08 03:11:15;;;;;;;12.60;4.60;;;;;;;24.81;34.72;99615.75;4455833;32;34379;-48
2021/03/08 03:13:43;;;;;;;10.30;4.12;;;;;;;24.85;34.72;99611.44;4470936;32;34355;-53
2021/03/08 03:16:10;;;;;;;13.20;4.57;;;;;;;24.86;34.63;99613.94;4470843;32;33906;-56
2021/03/08 03:18:37;;;;;;;11.55;4.90;;;;;;;24.88;34.69;99616.41;4468011;32;33762;-57
2021/03/08 03:21:05;;;;;;;10.80;4.28;;;;;;;24.90;34.84;99619.72;4455015;32;34110;-49
2021/03/08 03:23:36;;;;;;;10.93;4.25;;;;;;;24.89;34.95;99621.63;4469546;32;33997;-54
2021/03/08 03:26:05;;;;;;;18.83;4.60;;;;;;;24.88;35.02;99625.44;4467814;32;34794;-63
2021/03/08 03:28:33;;;;;;;15.93;4.50;;;;;;;24.87;35.02;99621.06;4469042;32;34951;-51
2021/03/08 03:31:00;;;;;;;13.15;4.57;;;;;;;24.87;35.12;99625.69;4457930;32;33533;-67
2021/03/08 03:33:27;;;;;;;14.87;4.62;;;;;;;24.86;35.13;99626.75;4485217;32;33707;-53
2021/03/08 03:35:55;;;;;;;10.52;4.70;;;;;;;24.83;35.15;99624.50;4484686;32;34902;-54
2021/03/08 03:38:22;;;;;;;13.98;4.72;;;;;;;24.81;35.20;99630.22;4457023;32;33911;-71
2021/03/08 03:40:49;;;;;;;12.98;4.43;;;;;;;24.79;35.26;99626.03;4457901;32;33175;-70
2021/03/08 03:43:17;;;;;;;10.57;4.40;;;;;;;24.76;35.31;99624.62;4484701;32;34526;-72
2021/03/08 03:45:44;;;;;;;13.32;4.82;;;;;;;24.73;35.30;99621.56;4470528;32;33914;-52
2021/03/08 03:48:11;;;;;;;9.48;4.25;;;;;;;24.72;35.34;99626.19;4469171;32;33762;-68
2021/03/08 03:50:38;;;;;;;9.07;4.55;;;;;;;24.68;35.34;99634.00;4468907;32;33262;-75
2021/03/08 03:53:06;;;;;;;10.13;4.50;;;;;;;24.65;35.35;99629.03;4469039;32;34839;-75
2021/03/08 03:55:34;;;;;;;10.13;4.07;;;;;;;24.63;35.33;99627.63;4469136;32;34900;-73
2021/03/08 03:58:11;;;;;;;9.15;4.00;;;;;;;24.60;35.19;99628.91;4469714;32;34229;-72
2021/03/08 04:01:09;;;;;;;11.60;4.00;;;;;;;24.59;35.12;99619.06;4484845;32;33155;-71
2021/03/08 04:04:08;;;;;;;12.95;4.60;;;;;;;24.58;35.27;99625.59;4455264;32;33727;-72
2021/03/08 04:06:41;;;;;;;10.27;3.70;;;;;;;24.58;35.15;99628.34;4470741;32;33874;-72
2021/03/08 04:09:09;;;;;;;13.85;4.40;;;;;;;24.51;35.33;99627.59;4469859;32;33737;-75
2021/03/08 04:11:37;;;;;;;11.27;3.65;;;;;;;24.48;35.38;99621.78;4457413;32;33354;-72
2021/03/08 04:14:04;;;;;;;10.18;4.35;;;;;;;24.42;35.54;99616.22;4470462;32;33730;-69
2021/03/08 04:16:31;;;;;;;13.18;4.00;;;;;;;24.39;35.63;99616.72;4457663;32;33593;-75
2021/03/08 04:19:00;;;;;;;10.88;3.92;;;;;;;24.38;35.66;99625.13;4470275;32;34605;-56
2021/03/08 04:21:28;;;;;;;11.38;4.30;;;;;;;24.35;35.65;99614.66;4470416;32;34147;-65
2021/03/08 04:23:55;;;;;;;11.82;4.50;;;;;;;24.32;35.74;99613.22;4470469;32;34426;-59
2021/03/08 04:26:22;;;;;;;10.57;4.30;;;;;;;24.29;35.87;99619.16;4457161;32;34097;-69
2021/03/08 04:28:49;;;;;;;12.93;4.47;;;;;;;24.27;35.92;99617.75;4484625;32;33846;-66
2021/03/08 04:31:17;;;;;;;11.45;4.57;;;;;;;24.25;35.89;99622.59;4484564;32;33361;-73
2021/03/08 04:33:46;;;;;;;14.13;3.83;;;;;;;24.23;35.89;99611.09;4466429;32;33825;-58
2021/03/08 04:36:13;;;;;;;13.77;4.12;;;;;;;24.21;35.82;99619.53;4470649;32;33813;-49
2021/03/08 04:38:41;;;;;;;13.35;4.85;;;;;;;24.18;35.83;99615.34;4454676;32;33811;-49
2021/03/08 04:41:12;;;;;;;11.30;3.42;;;;;;;24.15;35.90;99626.75;4460072;32;34178;-56
2021/03/08 04:43:39;;;;;;;7.50;3.35;;;;;;;24.12;35.85;99612.75;4457532;32;34116;-54
2021/03/08 04:46:06;;;;;;;13.45;5.20;;;;;;;24.12;35.74;99623.66;4457321;32;33830;-51
2021/03/08 04:48:34;;;;;;;11.07;3.80;;;;;;;24.08;35.81;99626.03;4470201;32;33563;-58
2021/03/08 04:51:05;;;;;;;10.75;4.87;;;;;;;24.07;35.87;99623.53;4470265;32;34051;-50
2021/03/08 04:53:32;;;;;;;7.05;3.55;;;;;;;24.04;35.83;99627.56;4477317;32;34590;-48
2021/03/08 04:55:59;;;;;;;8.43;4.03;;;;;;;24.03;35.79;99628.63;4441741;32;33979;-52
2021/03/08 04:58:26;;;;;;;7.65;4.18;;;;;;;24.01;35.85;99624.47;4441878;32;33821;-69
2021/03/08 05:00:55;;;;;;;7.97;3.70;;;;;;;24.00;35.85;99625.53;4468599;32;33255;-49
2021/03/08 05:03:26;;;;;;;10.63;5.15;;;;;;;23.98;35.89;99624.94;4468853;32;33911;-51
2021/03/08 05:05:55;;;;;;;14.60;4.55;;;;;;;23.97;35.89;99631.44;4454649;32;33807;-61
2021/03/08 05:08:24;;;;;;;7.40;3.62;;;;;;;23.94;35.93;99635.47;4454309;32;34012;-59
2021/03/08 05:10:50;;;;;;;10.25;4.05;;;;;;;23.92;35.94;99629.41;4441646;32;33122;-46
2021/03/08 05:13:18;;;;;;;10.30;4.15;;;;;;;23.91;35.88;99627.75;4454363;32;33942;-60
2021/03/08 05:15:45;;;;;;;12.52;3.83;;;;;;;23.88;35.93;99626.34;4441338;32;33920;-46
2021/03/08 05:18:12;;;;;;;11.25;3.58;;;;;;;23.86;36.00;99617.56;4468561;32;34863;-44
2021/03/08 05:20:40;;;;;;;13.10;4.00;;;;;;;23.85;35.94;99623.25;4441378;32;32959;-56
2021/03/08 05:23:07;;;;;;;9.68;3.90;;;;;;;23.83;36.00;99620.78;4454286;32;33751;-55
2021/03/08 05:25:34;;;;;;;8.38;3.53;;;;;;;23.81;36.04;99614.72;4441552;32;34136;-62
2021/03/08 05:28:01;;;;;;;7.43;3.53;;;;;;;23.79;35.96;99616.84;4454376;32;33736;-64
2021/03/08 05:30:28;;;;;;;10.30;3.97;;;;;;;23.79;36.03;99625.03;4450892;32;33369;-52
2021/03/08 05:33:12;;;;;;;7.60;3.83;;;;;;;23.77;36.01;99620.84;4470879;32;33706;-54
2021/03/08 05:35:41;;;;;;;9.43;3.92;;;;;;;23.75;36.07;99623.00;4469538;32;35944;-47
2021/03/08 05:38:08;;;;;;;9.23;3.90;;;;;;;23.72;36.10;99627.00;4484207;32;34192;-59
2021/03/08 05:40:45;;;;;;;7.22;3.70;;;;;;;23.71;36.09;99624.53;4457227;32;33384;-54
2021/03/08 05:43:13;;;;;;;9.60;3.85;;;;;;;23.70;36.12;99625.59;4484157;32;34562;-58
2021/03/08 05:45:59;;;;;;;10.82;3.87;;;;;;;23.67;36.11;99624.97;4484068;32;35014;-61
2021/03/08 05:48:41;;;;;;;7.93;3.80;;;;;;;23.68;36.13;99632.06;4483930;32;33485;-48
2021/03/08 05:51:29;;;;;;;10.32;3.75;;;;;;;23.64;36.17;99625.47;4484053;32;33268;-52
2021/03/08 05:54:00;;;;;;;10.02;3.90;;;;;;;23.66;36.11;99622.50;4469906;32;33539;-53
2021/03/08 05:57:04;;;;;;;9.35;3.97;;;;;;;23.60;36.21;99621.50;4469802;32;33888;-67
2021/03/08 05:59:37;;;;;;;7.93;3.78;;;;;;;23.62;36.25;99627.53;4483909;32;33889;-66
2021/03/08 06:02:05;;;;;;;11.82;4.10;;;;;;;23.57;36.29;99630.13;4469583;32;34220;-51
2021/03/08 06:04:56;;;;;;;11.32;4.05;;;;;;;23.56;36.26;99633.09;4469954;32;33727;-65
2021/03/08 06:07:47;;;;;;;11.00;3.97;;;;;;;23.57;36.24;99642.91;4483649;32;33849;-60
2021/03/08 06:10:27;;;;;;;10.80;3.72;;;;;;;23.56;36.30;99647.53;4470688;32;33848;-71
2021/03/08 06:12:54;;;;;;;15.65;4.20;;;;;;;23.53;36.36;99650.72;4469584;32;34038;-60
2021/03/08 06:15:22;;;;;;;10.82;3.80;;;;;;;23.53;36.46;99649.87;4469634;32;33760;-53
2021/03/08 06:17:53;;;;;;;9.13;3.47;;;;;;;23.51;36.48;99657.47;4483836;32;33862;-56
2021/03/08 06:20:20;;;;;;;9.50;3.72;;;;;;;23.49;36.47;99660.41;4484115;32;33804;-64
2021/03/08 06:22:48;;;;;;;10.90;3.80;;;;;;;23.48;36.43;99663.38;4483760;32;33120;-48
2021/03/08 06:25:15;;;;;;;7.30;3.75;;;;;;;23.48;36.46;99677.81;4469313;32;33901;-63
2021/03/08 06:27:43;;;;;;;10.10;4.05;;;;;;;23.47;36.44;99675.31;4469445;32;34824;-71
2021/03/08 06:30:11;;;;;;;10.50;3.45;;;;;;;23.46;36.44;99682.66;4466467;32;34467;-53
2021/03/08 06:32:38;;;;;;;11.15;3.42;;;;;;;23.45;36.44;99677.44;4465464;32;34201;-71
2021/03/08 06:35:06;;;;;;;11.00;3.67;;;;;;;23.43;36.44;99680.37;4466453;32;33855;-52
2021/03/08 06:37:34;;;;;;;11.52;3.85;;;;;;;23.42;36.53;99682.28;4467961;32;33739;-60
2021/03/08 06:40:02;;;;;;;8.75;3.62;;;;;;;23.42;36.53;99679.56;4453539;32;33984;-51
2021/03/08 06:42:29;;;;;;;12.18;3.92;;;;;;;23.42;36.55;99690.47;4467716;32;33336;-54
2021/03/08 06:44:56;;;;;;;9.27;3.60;;;;;;;23.40;36.52;99689.00;4466443;32;34945;-55
2021/03/08 06:47:23;;;;;;;12.00;3.70;;;;;;;23.39;36.50;99690.06;4466272;32;35016;-44
2021/03/08 06:49:53;;;;;;;11.63;4.35;;;;;;;23.39;36.54;99690.06;4467569;32;34997;-62
2021/03/08 06:52:22;;;;;;;12.32;4.12;;;;;;;23.37;36.49;99695.75;4466189;32;33628;-59
2021/03/08 06:55:01;;;;;;;9.85;3.45;;;;;;;23.37;36.46;99695.75;4467319;32;34547;-47
2021/03/08 06:57:35;;;;;;;10.82;3.58;;;;;;;23.38;36.52;99699.31;4467350;32;33863;-54
2021/03/08 07:00:07;;;;;;;6.82;3.50;;;;;;;23.36;36.58;99701.41;4465987;32;34542;-58
2021/03/08 07:02:44;;;;;;;11.73;3.60;;;;;;;23.35;36.64;99699.75;4467554;32;34289;-50
2021/03/08 07:05:30;;;;;;;11.82;3.50;;;;;;;23.34;36.52;99709.00;4465970;32;33745;-49
2021/03/08 07:08:00;;;;;;;8.77;3.70;;;;;;;23.36;36.52;99706.84;4468181;32;33833;-52
2021/03/08 07:10:38;;;;;;;13.45;3.62;;;;;;;23.34;36.58;99714.44;4478080;32;33799;-65
2021/03/08 07:13:08;;;;;;;9.65;3.20;;;;;;;23.33;36.55;99718.22;4482511;32;33336;-66
2021/03/08 07:15:53;;;;;;;12.37;4.03;;;;;;;23.32;36.63;99716.56;4480048;32;33756;-57
2021/03/08 07:18:21;;;;;;;9.32;3.47;;;;;;;23.33;36.57;99718.22;4479941;32;33806;-51
2021/03/08 07:20:52;;;;;;;11.35;3.58;;;;;;;23.31;36.70;99717.59;4482993;32;33611;-66
2021/03/08 07:23:24;;;;;;;13.65;4.03;;;;;;;23.29;36.58;99717.00;4482746;32;33250;-51
2021/03/08 07:26:11;;;;;;;9.52;3.55;;;;;;;23.29;36.64;99714.28;4482764;32;33732;-62
2021/03/08 07:28:38;;;;;;;11.77;3.35;;;;;;;23.31;36.51;99726.59;4482694;32;33587;-65
2021/03/08 07:31:06;;;;;;;16.12;4.03;;;;;;;23.27;36.70;99722.69;4468813;32;33578;-60
2021/03/08 07:33:33;;;;;;;11.80;3.30;;;;;;;23.26;36.59;99728.34;4482579;32;33343;-65
2021/03/08 07:36:01;;;;;;;9.98;4.45;;;;;;;23.27;36.64;99727.28;4468705;32;33822;-53
2021/03/08 07:38:35;;;;;;;15.70;3.78;;;;;;;23.26;36.69;99728.34;4482678;32;33721;-57
2021/03/08 07:41:11;;;;;;;18.73;4.12;;;;;;;23.24;36.71;99733.19;4482313;32;33912;-48
2021/03/08 07:43:39;;;;;;;12.50;3.42;;;;;;;23.26;36.73;99731.91;4483296;32;34258;-43
2021/03/08 07:46:25;;;;;;;7.78;3.60;;;;;;;23.23;36.72;99735.09;4485088;32;33856;-64
2021/03/08 07:48:53;;;;;;;16.15;4.00;;;;;;;23.23;36.71;99731.53;4472530;32;34729;-51
2021/03/08 07:51:21;;;;;;;8.93;3.80;;;;;;;23.24;36.72;99739.47;4470546;32;33790;-62
2021/03/08 07:53:48;;;;;;;13.02;3.97;;;;;;;23.23;36.68;99735.09;4484554;32;33332;-64
2021/03/08 07:56:15;;;;;;;13.43;3.85;;;;;;;23.21;36.70;99726.31;4484697;32;34503;-51
2021/03/08 07:58:42;;;;;;;9.70;3.60;;;;;;;23.21;36.71;99722.75;4457839;32;33911;-57
2021/03/08 08:01:09;;;;;;;9.98;3.20;;;;;;;23.22;36.63;99727.13;4484555;32;34772;-65
2021/03/08 08:03:37;;;;;;;12.57;4.10;;;;;;;23.22;36.70;99725.25;4484757;32;33319;-53
2021/03/08 08:06:06;;;;;;;17.45;4.32;;;;;;;23.21;36.76;99720.84;4484641;32;34735;-52
2021/03/08 08:08:35;;;;;;;18.87;8.52;;;;;;;23.20;36.68;99715.66;4484580;32;34865;-46
2021/03/08 08:11:03;;;;;;;13.80;8.13;;;;;;;23.25;32.28;99724.78;4484592;32;33791;-51
2021/03/08 08:13:53;;;;;;;15.35;7.18;;;;;;;23.20;32.77;99723.81;4484668;32;33450;-48
2021/03/08 08:16:25;;;;;;;14.93;6.90;;;;;;;23.19;33.86;99724.88;4481562;32;33652;-50
2021/03/08 08:18:53;;;;;;;17.90;6.62;;;;;;;23.16;34.08;99726.16;4469172;32;33833;-53
2021/03/08 08:21:21;;;;;;;13.85;5.93;;;;;;;23.15;34.14;99730.78;4470392;32;33507;-64
2021/03/08 08:23:56;;;;;;;12.15;6.03;;;;;;;23.22;34.23;99727.97;4454721;32;34493;-63
2021/03/08 08:26:24;;;;;;;22.08;6.45;;;;;;;23.33;34.25;99732.66;4454983;32;34537;-52
2021/03/08 08:28:53;;;;;;;18.50;6.43;;;;;;;23.48;34.15;99736.88;4471484;31;34791;-55
2021/03/08 08:31:20;;;;;;;19.15;5.53;;;;;;;23.58;34.18;99735.28;4461221;32;34547;-52
2021/03/08 08:33:48;;;;;;;19.08;5.37;;;;;;;23.70;34.21;99748.19;4484061;31;33479;-60
2021/03/08 08:36:15;;;;;;;26.92;5.18;;;;;;;23.80;34.28;99743.00;4492153;31;33787;-62
2021/03/08 08:39:04;;;;;;;18.25;5.50;;;;;;;23.91;34.29;99744.94;4483738;32;33839;-50
2021/03/08 08:41:32;;;;;;;20.07;4.97;;;;;;;24.02;34.27;99737.88;4484227;32;33492;-59
2021/03/08 08:44:14;;;;;;;13.30;4.40;;;;;;;24.19;34.16;99734.25;4484077;32;33211;-55
2021/03/08 08:46:45;;;;;;;15.85;5.37;;;;;;;24.32;34.12;99740.56;4489694;31;34744;-59
2021/03/08 08:49:16;;;;;;;11.07;4.57;;;;;;;24.43;34.05;99740.63;4500034;31;33918;-55
2021/03/08 08:51:57;;;;;;;14.68;5.28;;;;;;;24.55;34.00;99734.34;4500221;31;34523;-62
2021/03/08 08:54:30;;;;;;;16.52;5.35;;;;;;;24.70;33.94;99726.53;4492779;31;33318;-58
2021/03/08 08:57:03;;;;;;;11.95;5.22;;;;;;;24.81;33.85;99724.88;4483663;32;34529;-55
2021/03/08 08:59:33;;;;;;;14.85;5.07;;;;;;;24.93;33.72;99729.25;4483612;32;34796;-58
2021/03/08 09:02:13;;;;;;;13.90;4.78;;;;;;;25.05;33.60;99726.53;4470336;32;33828;-66
2021/03/08 09:04:41;;;;;;;13.68;5.35;;;;;;;25.21;33.47;99726.87;4484106;32;33323;-65
2021/03/08 09:07:26;;;;;;;13.85;5.00;;;;;;;25.28;33.49;99727.59;4484177;32;33636;-59
2021/03/08 09:09:57;;;;;;;15.75;5.03;;;;;;;25.42;33.35;99721.63;4484110;32;33949;-46
2021/03/08 09:12:41;;;;;;;18.45;4.80;;;;;;;25.49;33.36;99724.22;4483484;32;33902;-56
2021/03/08 09:15:11;;;;;;;17.87;5.18;;;;;;;25.59;33.19;99723.56;4484079;32;33306;-53
2021/03/08 09:17:51;;;;;;;16.33;5.10;;;;;;;25.66;33.10;99721.56;4484034;32;33789;-61
2021/03/08 09:20:21;;;;;;;19.70;5.12;;;;;;;25.77;33.02;99717.97;4484003;32;34921;-55
2021/03/08 09:22:52;;;;;;;16.80;4.20;;;;;;;25.84;32.99;99715.09;4486816;31;34601;-64
2021/03/08 09:25:26;;;;;;;12.52;4.25;;;;;;;25.92;32.92;99718.25;4499476;31;33622;-65
2021/03/08 09:28:10;;;;;;;14.65;5.30;;;;;;;26.02;32.85;99714.88;4491367;31;33924;-62
2021/03/08 09:30:42;;;;;;;12.05;4.40;;;;;;;26.12;32.73;99711.50;4483704;32;33573;-58
2021/03/08 09:33:10;;;;;;;22.27;6.37;;;;;;;26.19;32.67;99707.53;4483903;32;34523;-56
2021/03/08 09:35:49;;;;;;;16.52;4.57;;;;;;;26.27;32.55;99713.69;4483656;32;33410;-57
2021/03/08 09:38:18;;;;;;;12.80;4.43;;;;;;;26.35;32.50;99716.84;4483276;32;33683;-57
2021/03/08 09:40:47;;;;;;;14.98;4.37;;;;;;;26.41;32.44;99712.28;4483937;32;34652;-50
2021/03/08 09:43:33;;;;;;;12.55;4.82;;;;;;;26.46;32.45;99701.44;4483688;32;33729;-55
2021/03/08 09:46:05;;;;;;;13.32;4.20;;;;;;;26.53;32.24;99713.03;4483752;32;33318;-52
2021/03/08 09:48:36;;;;;;;13.32;4.97;;;;;;;26.57;32.27;99711.44;4483404;32;34481;-58
2021/03/08 09:51:12;;;;;;;12.88;4.53;;;;;;;26.61;32.18;99714.53;4469666;32;33907;-49
2021/03/08 09:53:43;;;;;;;20.30;4.53;;;;;;;26.67;32.09;99697.97;4483621;32;34591;-56
2021/03/08 09:56:19;;;;;;;14.13;4.45;;;;;;;26.75;32.05;99698.59;4483877;32;33389;-48
2021/03/08 09:58:46;;;;;;;11.85;4.37;;;;;;;26.80;31.92;99695.94;4483663;32;33762;-53
2021/03/08 10:01:22;;;;;;;18.45;4.95;;;;;;;26.83;31.67;99707.22;4480380;31;34609;-55
2021/03/08 10:03:49;;;;;;;16.55;4.65;;;;;;;26.91;31.51;99700.50;4489291;31;32545;-54
2021/03/08 10:06:33;;;;;;;14.73;4.35;;;;;;;26.95;31.41;99696.13;4482915;32;33184;-49
2021/03/08 10:09:23;;;;;;;16.48;4.75;;;;;;;27.00;31.30;99692.62;4497407;31;34560;-58
2021/03/08 10:12:03;;;;;;;19.50;4.60;;;;;;;27.06;31.27;99694.38;4499056;31;34981;-48
2021/03/08 10:14:32;;;;;;;20.10;5.50;;;;;;;27.05;31.26;99699.03;4489181;31;34004;-61
2021/03/08 10:17:09;;;;;;;18.85;5.18;;;;;;;27.07;31.09;99701.50;4482766;32;33829;-67
2021/03/08 10:19:38;;;;;;;15.88;4.65;;;;;;;27.13;31.05;99693.12;4469157;32;34378;-64
2021/03/08 10:22:06;;;;;;;14.13;4.97;;;;;;;27.16;31.03;99692.62;4471652;32;33932;-67
2021/03/08 10:24:39;;;;;;;13.62;4.18;;;;;;;27.22;31.02;99693.53;4482460;32;33937;-61
2021/03/08 10:27:10;;;;;;;16.62;4.43;;;;;;;27.29;30.95;99699.66;4480877;32;33465;-55
2021/03/08 10:29:38;;;;;;;19.62;4.97;;;;;;;27.34;30.95;99699.72;4447659;32;33665;-56
2021/03/08 10:32:10;;;;;;;18.55;4.45;;;;;;;27.40;31.01;99686.91;4467382;32;33802;-62
2021/03/08 10:34:37;;;;;;;16.00;4.90;;;;;;;27.44;31.01;99697.09;4455607;32;33699;-64
2021/03/08 10:37:10;;;;;;;16.55;4.60;;;;;;;27.48;30.90;99691.13;4457230;32;34332;-58
2021/03/08 10:39:41;;;;;;;16.83;4.93;;;;;;;27.52;30.81;99689.53;4468973;32;35342;-60
2021/03/08 10:42:08;;;;;;;16.20;4.53;;;;;;;27.57;30.77;99695.87;4468963;32;33728;-64
2021/03/08 10:44:35;;;;;;;19.40;5.00;;;;;;;27.59;30.69;99690.13;4455967;32;35192;-54
2021/03/08 10:47:13;;;;;;;19.67;4.65;;;;;;;27.65;30.66;99691.84;4469268;32;34535;-58
2021/03/08 10:49:53;;;;;;;14.57;5.03;;;;;;;27.73;30.56;99698.81;4483237;32;33758;-52
2021/03/08 10:52:21;;;;;;;24.15;5.47;;;;;;;27.76;30.57;99692.81;4468937;32;35185;-55
2021/03/08 10:54:48;;;;;;;20.37;4.93;;;;;;;27.79;30.64;99695.03;4482904;32;33535;-51
2021/03/08 10:57:15;;;;;;;17.60;4.50;;;;;;;27.84;30.64;99687.72;4483023;32;33352;-59
2021/03/08 10:59:55;;;;;;;14.77;4.75;;;;;;;27.86;30.53;99688.25;4483169;32;33878;-54
2021/03/08 11:02:22;;;;;;;20.40;5.15;;;;;;;27.86;30.55;99688.25;4483100;32;34335;-58
2021/03/08 11:05:11;;;;;;;18.35;5.20;;;;;;;27.86;30.48;99687.44;4476335;31;33792;-66
2021/03/08 11:07:38;;;;;;;18.92;4.40;;;;;;;27.87;30.41;99681.69;4482634;31;33329;-52
2021/03/08 11:10:06;;;;;;;15.10;4.50;;;;;;;27.84;30.55;99681.37;4481799;31;34585;-56
2021/03/08 11:12:34;;;;;;;17.33;5.00;;;;;;;27.79;30.66;99670.34;4482401;32;32512;-58
2021/03/08 11:15:02;;;;;;;14.05;4.35;;;;;;;27.75;30.57;99670.06;4455487;32;33790;-59
2021/03/08 11:17:48;;;;;;;14.77;8.00;;;;;;;27.70;30.01;99672.72;4468751;32;33427;-64
2021/03/08 11:20:34;;;;;;;17.42;8.88;;;;;;;27.56;25.79;99675.03;4485115;32;33848;-57
2021/03/08 11:23:02;;;;;;;17.65;9.52;;;;;;;27.35;24.12;99673.97;4494341;31;33822;-53
2021/03/08 11:25:40;;;;;;;14.93;8.48;;;;;;;27.15;22.80;99674.56;4500592;31;33723;-61
2021/03/08 11:28:12;;;;;;;16.25;7.43;;;;;;;26.98;24.64;99670.16;4496185;31;33208;-48
2021/03/08 11:30:43;;;;;;;16.55;6.57;;;;;;;26.84;24.52;99677.91;4470039;32;34559;-54
2021/03/08 11:33:11;;;;;;;17.67;7.03;;;;;;;26.79;24.75;99669.62;4484811;32;33529;-55
2021/03/08 11:35:40;;;;;;;14.57;6.62;;;;;;;26.76;25.38;99675.59;4484566;32;33004;-64
2021/03/08 11:38:12;;;;;;;14.90;5.53;;;;;;;26.76;25.60;99678.34;4484824;32;34178;-58
2021/03/08 11:40:44;;;;;;;14.63;6.05;;;;;;;26.80;26.03;99679.50;4484646;32;34460;-52
2021/03/08 11:43:12;;;;;;;14.70;5.75;;;;;;;26.91;26.47;99668.47;4484534;32;33944;-57
2021/03/08 11:45:39;;;;;;;13.85;5.32;;;;;;;27.01;26.63;99665.03;4484580;32;33711;-57